CYGT

Igloolik Airport

Igloolik, Canada
METAR CYGT 191000Z 15023KT 15SM SCT006 BKN050 OVC090 00/M00 A2983 RMK ST3SC4AC1 SLP106
Observed Flight Rules
Sep-19 @ 10:00 UTC (an hour ago) Visual Flight Rules
Wind Visibility Clouds
150° at 23 knots 15 miles
  • Scattered at 600' AGL
  • Broken at 5,000' AGL
  • Overcast at 9,000' AGL
Temperatures Readings
Current 0°C / 32°F
Dewpoint 0°C / 32°F
Humidity 100%
Altimeter 29.83" Hg
Pressure 1010.6 hPa
Elevation 51
METAR CYGT 191000Z 15023KT 15SM SCT006 BKN050 OVC090 00/M00 A2983 RMK ST3SC4AC1 SLP106
Observed Flight Rules
Sep-19 @ 10:00 UTC
(an hour ago)
VFR
Wind Visibility
150° at 23 knots 15 miles
Clouds
  • Scattered at 600' AGL
  • Broken at 5,000' AGL
  • Overcast at 9,000' AGL
Temperature Dewpoint
0°C / 32°F 0°C / 32°F
Humidity Altimeter Pressure
100% 29.83" Hg 1010.6 hPa